Sun Universe — 3FOQ4 — position and weather

sailwx.info

Track history (hours):
 
Tides and Currents Weather Stations Pressure Air Temp Water Temp Dewpoint Dewpoint Depression Visibility Wind Speed Wind Dir Waves Ship Positions

Sun Universe

Last reported at 2015-Apr-26 22:08 UTC. Time now 2015-May-06 22:35 UTC.
Position N 24°50' E 119°22'.
Warning: this ship's position is 10 days out of date.

Length 116 m; draft 5.2 m.

Type: Cargo ship. MMSI: 371647000.

Date/timePositionNaut miles runAvg speedWind from/ knotsBaromVisibWave heightAir tempDewpointWater temp
2015-Apr-26 22:08N 24°50' E 119°22'813.8
2015-Apr-26 21:32N 24°45' E 119°15'2013.7
2015-Apr-26 20:05N 24°31' E 118°59'813.4
2015-Apr-26 19:30N 24°26' E 118°52'1813.7
2015-Apr-26 18:13N 24°15' E 118°37'914.0
2015-Apr-26 17:33N 24°10' E 118°29'1514.0
2015-Apr-26 16:27N 23°59' E 118°18'1513.7
2015-Apr-26 15:22N 23°49' E 118°05'6613.1
2015-Apr-26 10:21N 23°06' E 117°11'1113.4
2015-Apr-26 09:33N 23°01' E 117°00'1513.8
2015-Apr-26 08:30N 22°54' E 116°47'12712.6
2015-Apr-25 22:26N 22°10' E 114°38'1112.5
2015-Apr-25 21:33N 22°07' E 114°26'1212.1
2015-Apr-25 20:33N 22°07' E 114°13'11 1.3
2015-Apr-25 12:31N 22°08' E 114°02'1111.7
2015-Apr-25 11:33N 22°06' E 113°50'1110.8
2015-Apr-25 10:34N 22°17' E 113°48'22 0.7
2015-Apr-24 03:23N 22°38' E 113°42'1513.1
2015-Apr-24 02:14N 22°24' E 113°46'812.3
2015-Apr-24 01:33N 22°15' E 113°48'9 9.2
2015-Apr-24 00:33N 22°06' E 113°50'3 2.4
2015-Apr-23 23:21N 22°05' E 113°52'0 0.0
2015-Apr-23 22:33N 22°05' E 113°52'0 0.0
2015-Apr-23 21:33N 22°05' E 113°52'0 0.0
2015-Apr-23 20:15N 22°05' E 113°52'0 0.0
2015-Apr-23 19:15N 22°05' E 113°52'0 0.0
2015-Apr-23 18:33N 22°05' E 113°52'0 0.0
2015-Apr-23 17:33N 22°05' E 113°52'0 0.0
2015-Apr-23 16:33N 22°05' E 113°52'0 0.0
2015-Apr-23 15:15N 22°05' E 113°52'0 0.0
2015-Apr-23 13:33N 22°05' E 113°52'0 0.1
2015-Apr-23 12:21N 22°05' E 113°52'0 0.0
2015-Apr-23 10:09N 22°05' E 113°52'0 0.0
2015-Apr-23 09:33N 22°05' E 113°52'0 0.0
2015-Apr-23 08:21N 22°05' E 113°52'0 0.0
2015-Apr-23 07:33N 22°05' E 113°52'0 0.1
2015-Apr-23 06:33N 22°05' E 113°52'0 0.0
2015-Apr-23 05:33N 22°05' E 113°52'0 0.0
2015-Apr-23 04:21N 22°05' E 113°52'0 0.0
2015-Apr-23 03:27N 22°05' E 113°52'0 0.0
2015-Apr-23 02:27N 22°05' E 113°52'0 0.0
2015-Apr-23 01:33N 22°05' E 113°52'16411.7
2015-Apr-22 11:33N 22°51' E 116°43'1414.4
2015-Apr-22 10:33N 22°59' E 116°56'7414.2
2015-Apr-22 05:19N 23°44' E 118°00'1013.5
2015-Apr-22 04:33N 23°51' E 118°09'1312.9
2015-Apr-22 03:33N 23°60' E 118°19'1312.8
2015-Apr-22 02:32N 24°08' E 118°30'1512.6
2015-Apr-22 01:20N 24°19' E 118°42'1012.7
2015-Apr-22 00:32N 24°25' E 118°51'1313.0
2015-Apr-21 23:33N 24°34' E 119°01'1313.1
2015-Apr-21 22:33N 24°43' E 119°12'3113.6
2015-Apr-21 20:17N 25°02' E 119°38'  
2015-Apr-19 07:26N 33°36' E 129°42'1214.1
2015-Apr-19 06:33N 33°42' E 129°55'1413.7
2015-Apr-19 05:32N 33°49' E 130°10'3012.6
2015-Apr-19 03:10N 34°03' E 130°42'  
Track history (hours):
 
Tides and Currents Weather Stations Pressure Air Temp Water Temp Dewpoint Dewpoint Depression Visibility Wind Speed Wind Dir Waves Ship Positions

Sun Universe

Last reported at 2015-Apr-26 22:08 UTC. Time now 2015-May-06 22:35 UTC.
Position N 24°50' E 119°22'.
Warning: this ship's position is 10 days out of date.

Length 116 m; draft 5.2 m.

Type: Cargo ship. MMSI: 371647000.

Date/timePositionNaut miles runAvg speedWind from/ knotsBaromVisibWave heightAir tempDewpointWater temp
2015-Apr-26 22:08N 24°50' E 119°22'813.8
2015-Apr-26 21:32N 24°45' E 119°15'2013.7
2015-Apr-26 20:05N 24°31' E 118°59'813.4
2015-Apr-26 19:30N 24°26' E 118°52'1813.7
2015-Apr-26 18:13N 24°15' E 118°37'914.0
2015-Apr-26 17:33N 24°10' E 118°29'1514.0
2015-Apr-26 16:27N 23°59' E 118°18'1513.7
2015-Apr-26 15:22N 23°49' E 118°05'6613.1
2015-Apr-26 10:21N 23°06' E 117°11'1113.4
2015-Apr-26 09:33N 23°01' E 117°00'1513.8
2015-Apr-26 08:30N 22°54' E 116°47'12712.6
2015-Apr-25 22:26N 22°10' E 114°38'1112.5
2015-Apr-25 21:33N 22°07' E 114°26'1212.1
2015-Apr-25 20:33N 22°07' E 114°13'11 1.3
2015-Apr-25 12:31N 22°08' E 114°02'1111.7
2015-Apr-25 11:33N 22°06' E 113°50'1110.8
2015-Apr-25 10:34N 22°17' E 113°48'22 0.7
2015-Apr-24 03:23N 22°38' E 113°42'1513.1
2015-Apr-24 02:14N 22°24' E 113°46'812.3
2015-Apr-24 01:33N 22°15' E 113°48'9 9.2
2015-Apr-24 00:33N 22°06' E 113°50'3 2.4
2015-Apr-23 23:21N 22°05' E 113°52'0 0.0
2015-Apr-23 22:33N 22°05' E 113°52'0 0.0
2015-Apr-23 21:33N 22°05' E 113°52'0 0.0
2015-Apr-23 20:15N 22°05' E 113°52'0 0.0
2015-Apr-23 19:15N 22°05' E 113°52'0 0.0
2015-Apr-23 18:33N 22°05' E 113°52'0 0.0
2015-Apr-23 17:33N 22°05' E 113°52'0 0.0
2015-Apr-23 16:33N 22°05' E 113°52'0 0.0
2015-Apr-23 15:15N 22°05' E 113°52'0 0.0
2015-Apr-23 13:33N 22°05' E 113°52'0 0.1
2015-Apr-23 12:21N 22°05' E 113°52'0 0.0
2015-Apr-23 10:09N 22°05' E 113°52'0 0.0
2015-Apr-23 09:33N 22°05' E 113°52'0 0.0
2015-Apr-23 08:21N 22°05' E 113°52'0 0.0
2015-Apr-23 07:33N 22°05' E 113°52'0 0.1
2015-Apr-23 06:33N 22°05' E 113°52'0 0.0
2015-Apr-23 05:33N 22°05' E 113°52'0 0.0
2015-Apr-23 04:21N 22°05' E 113°52'0 0.0
2015-Apr-23 03:27N 22°05' E 113°52'0 0.0
2015-Apr-23 02:27N 22°05' E 113°52'0 0.0
2015-Apr-23 01:33N 22°05' E 113°52'16411.7
2015-Apr-22 11:33N 22°51' E 116°43'1414.4
2015-Apr-22 10:33N 22°59' E 116°56'7414.2
2015-Apr-22 05:19N 23°44' E 118°00'1013.5
2015-Apr-22 04:33N 23°51' E 118°09'1312.9
2015-Apr-22 03:33N 23°60' E 118°19'1312.8
2015-Apr-22 02:32N 24°08' E 118°30'1512.6
2015-Apr-22 01:20N 24°19' E 118°42'1012.7
2015-Apr-22 00:32N 24°25' E 118°51'1313.0
2015-Apr-21 23:33N 24°34' E 119°01'1313.1
2015-Apr-21 22:33N 24°43' E 119°12'3113.6
2015-Apr-21 20:17N 25°02' E 119°38'  
2015-Apr-19 07:26N 33°36' E 129°42'1214.1
2015-Apr-19 06:33N 33°42' E 129°55'1413.7
2015-Apr-19 05:32N 33°49' E 130°10'3012.6
2015-Apr-19 03:10N 34°03' E 130°42'  

Dump ship's entire track history